Time;durP1;ratioP1;P1;durP2;ratioP2;P2;SDS_P1;SDS_P2;PMS_P1;PMS_P2;Temp;Humidity;BMP_temperature;BMP_pressure;BME280_temperature;BME280_humidity;BME280_pressure;Samples;Min_cycle;Max_cycle;Signal;HPM_P1;HPM_P2
2022/12/20 00:01:39;;;;;;;1.20;1.02;;;3.20;94.20;;;;;;5052022;28;20291;-69
2022/12/20 00:04:09;;;;;;;1.75;0.98;;;3.30;94.20;;;;;;5058834;28;20203;-69
2022/12/20 00:06:40;;;;;;;1.50;1.20;;;3.30;94.20;;;;;;5039248;28;20251;-70
2022/12/20 00:09:09;;;;;;;1.70;1.38;;;3.30;94.40;;;;;;5035723;28;20216;-70
2022/12/20 00:11:40;;;;;;;1.70;1.40;;;3.30;94.30;;;;;;5069607;28;20618;-69
2022/12/20 00:14:09;;;;;;;2.75;1.20;;;3.30;94.20;;;;;;5045017;28;20619;-69
2022/12/20 00:16:39;;;;;;;1.70;1.40;;;3.30;94.20;;;;;;5057426;28;20220;-69
2022/12/20 00:19:09;;;;;;;3.30;1.50;;;3.30;94.30;;;;;;5051080;28;20299;-70
2022/12/20 00:21:38;;;;;;;1.92;1.30;;;3.30;94.20;;;;;;5058365;28;20301;-70
2022/12/20 00:24:07;;;;;;;2.08;1.48;;;3.30;94.10;;;;;;5045191;28;20670;-70
2022/12/20 00:26:36;;;;;;;1.40;1.20;;;3.30;94.10;;;;;;5057187;28;20232;-70
2022/12/20 00:29:05;;;;;;;1.90;1.70;;;3.30;94.10;;;;;;5043363;28;20698;-71
2022/12/20 00:31:34;;;;;;;1.63;1.33;;;3.30;94.00;;;;;;5044284;28;20311;-70
2022/12/20 00:34:04;;;;;;;2.10;1.40;;;3.30;94.00;;;;;;5041181;28;20197;-73
2022/12/20 00:36:40;;;;;;;1.50;1.27;;;3.30;94.00;;;;;;5072396;28;20211;-75
2022/12/20 00:39:10;;;;;;;1.98;1.05;;;3.30;93.90;;;;;;5041171;28;20224;-71
2022/12/20 00:41:38;;;;;;;1.20;0.95;;;3.30;93.90;;;;;;5041139;28;20231;-69
2022/12/20 00:44:07;;;;;;;2.35;1.23;;;3.30;93.90;;;;;;5045983;28;20193;-70
2022/12/20 00:46:35;;;;;;;1.13;1.00;;;3.40;93.80;;;;;;5030977;28;20439;-69
2022/12/20 00:49:06;;;;;;;1.42;1.13;;;3.40;93.80;;;;;;5043732;28;20695;-70
2022/12/20 00:51:34;;;;;;;1.30;1.10;;;3.40;93.90;;;;;;5045678;28;20315;-70
2022/12/20 00:54:03;;;;;;;1.75;1.10;;;3.40;93.80;;;;;;5047530;28;20194;-71
2022/12/20 00:56:32;;;;;;;1.55;1.17;;;3.40;93.90;;;;;;5048852;28;20238;-72
2022/12/20 00:59:00;;;;;;;1.40;1.08;;;3.40;93.90;;;;;;5040276;28;20286;-71
2022/12/20 01:01:33;;;;;;;2.10;1.90;;;3.40;93.80;;;;;;5043427;28;20238;-71
2022/12/20 01:04:02;;;;;;;3.58;1.23;;;3.40;93.80;;;;;;5043924;28;20269;-72
2022/12/20 01:06:32;;;;;;;1.10;1.00;;;3.40;94.00;;;;;;5035837;28;20715;-69
2022/12/20 01:09:01;;;;;;;1.70;1.25;;;3.40;93.90;;;;;;5038856;28;20267;-70
2022/12/20 01:11:32;;;;;;;1.45;1.33;;;3.40;93.90;;;;;;5056543;28;20208;-70
2022/12/20 01:14:02;;;;;;;2.22;1.15;;;3.40;93.80;;;;;;5038584;28;20339;-72
2022/12/20 01:16:33;;;;;;;1.10;0.90;;;3.40;93.70;;;;;;5053177;28;20231;-70
2022/12/20 01:19:02;;;;;;;1.95;1.38;;;3.40;93.80;;;;;;5035282;28;20719;-69
2022/12/20 01:21:32;;;;;;;1.73;1.40;;;3.40;93.70;;;;;;5055324;28;20262;-70
2022/12/20 01:24:01;;;;;;;1.02;0.93;;;3.40;94.00;;;;;;5038469;28;20194;-69
2022/12/20 01:26:30;;;;;;;1.00;0.82;;;3.40;93.80;;;;;;5040490;28;20246;-70
2022/12/20 01:29:00;;;;;;;1.27;0.80;;;3.40;93.80;;;;;;5028053;28;20539;-70
2022/12/20 01:31:29;;;;;;;1.85;1.30;;;3.40;93.80;;;;;;5054384;28;20228;-72
2022/12/20 01:34:00;;;;;;;2.72;0.95;;;3.50;93.80;;;;;;5038774;28;20219;-72
2022/12/20 01:36:31;;;;;;;1.55;1.45;;;3.50;93.80;;;;;;5041586;28;20197;-70
2022/12/20 01:39:03;;;;;;;4.53;1.55;;;3.50;94.00;;;;;;5037836;28;20249;-71
2022/12/20 01:41:32;;;;;;;1.33;1.17;;;3.50;93.90;;;;;;5059079;28;20231;-70
2022/12/20 01:44:03;;;;;;;2.17;1.30;;;3.50;93.70;;;;;;5036511;28;20668;-69
2022/12/20 01:46:33;;;;;;;2.30;1.23;;;3.50;93.80;;;;;;5059742;28;20232;-72
2022/12/20 01:49:10;;;;;;;0.77;0.77;;;3.50;93.80;;;;;;5029042;28;20219;-71
2022/12/20 01:51:43;;;;;;;2.03;1.33;;;3.50;93.70;;;;;;5033504;28;20224;-75
2022/12/20 01:54:17;;;;;;;1.35;1.00;;;3.50;93.80;;;;;;5031841;28;20197;-73
2022/12/20 01:56:50;;;;;;;1.20;1.10;;;3.50;93.90;;;;;;5053008;28;20222;-76
2022/12/20 01:59:19;;;;;;;2.35;1.50;;;3.50;93.80;;;;;;5040552;28;20213;-73
2022/12/20 02:01:47;;;;;;;1.10;1.00;;;3.50;93.70;;;;;;5040786;28;20236;-73
2022/12/20 02:04:16;;;;;;;1.00;0.90;;;3.50;93.70;;;;;;5045911;28;20203;-74
2022/12/20 02:06:45;;;;;;;2.42;1.48;;;3.50;93.70;;;;;;5042804;28;20561;-76
2022/12/20 02:09:15;;;;;;;2.22;1.33;;;3.50;93.70;;;;;;5050818;28;20233;-75
2022/12/20 02:12:01;;;;;;;1.13;1.02;;;3.60;93.70;;;;;;5059033;28;20209;-74
2022/12/20 02:14:44;;;;;;;1.48;1.15;;;3.50;93.70;;;;;;5045675;28;20559;-74
2022/12/20 02:17:20;;;;;;;1.67;0.95;;;3.60;93.70;;;;;;5039435;28;20215;-73
2022/12/20 02:20:19;;;;;;;2.20;1.65;;;3.60;93.70;;;;;;5040473;28;20216;-74
2022/12/20 02:23:14;;;;;;;1.30;1.20;;;3.60;93.90;;;;;;5051916;28;20221;-75
2022/12/20 02:25:52;;;;;;;1.52;0.90;;;3.60;93.70;;;;;;5042122;28;20193;-75
2022/12/20 02:28:46;;;;;;;1.30;1.10;;;3.60;93.70;;;;;;5052130;28;20208;-74
2022/12/20 02:31:20;;;;;;;1.20;1.10;;;3.60;93.70;;;;;;5039819;28;20274;-74
2022/12/20 02:33:52;;;;;;;1.50;1.40;;;3.60;93.70;;;;;;5045176;28;20211;-74
2022/12/20 02:36:20;;;;;;;2.58;1.38;;;3.60;94.20;;;;;;5051104;28;20193;-74
2022/12/20 02:38:52;;;;;;;1.77;1.13;;;3.60;93.70;;;;;;5049770;28;20226;-73
2022/12/20 02:41:34;;;;;;;1.58;1.02;;;3.60;93.50;;;;;;5048895;28;20640;-73
2022/12/20 02:46:54;;;;;;;1.00;0.90;;;3.60;94.00;;;;;;5057909;28;20217;-73
2022/12/20 02:49:29;;;;;;;1.48;1.38;;;3.60;93.50;;;;;;5024739;28;20295;-73
2022/12/20 02:52:01;;;;;;;1.65;1.50;;;3.60;93.50;;;;;;5038532;28;20227;-73
2022/12/20 02:54:30;;;;;;;2.53;1.15;;;3.60;93.40;;;;;;5038819;28;20197;-73
2022/12/20 02:57:05;;;;;;;1.73;1.10;;;3.60;93.40;;;;;;5043441;28;20295;-74
2022/12/20 02:59:39;;;;;;;0.98;0.90;;;3.70;93.30;;;;;;5072634;28;20215;-74
2022/12/20 03:02:10;;;;;;;1.20;1.10;;;3.70;93.50;;;;;;5042880;28;20216;-75
2022/12/20 03:04:41;;;;;;;1.52;1.30;;;3.70;93.50;;;;;;5031236;28;20284;-73
2022/12/20 03:07:11;;;;;;;1.00;0.85;;;3.70;94.00;;;;;;5039757;28;20236;-74
2022/12/20 03:09:43;;;;;;;1.65;1.30;;;3.70;93.50;;;;;;5043812;28;20643;-74
2022/12/20 03:12:15;;;;;;;1.25;1.10;;;3.70;93.50;;;;;;5040608;28;20301;-74
2022/12/20 03:14:44;;;;;;;1.48;1.13;;;3.70;93.40;;;;;;5039961;28;20193;-74
2022/12/20 03:17:15;;;;;;;2.85;1.52;;;3.70;93.40;;;;;;5055077;28;20243;-73
2022/12/20 03:19:44;;;;;;;1.38;1.10;;;3.70;93.40;;;;;;5047161;28;20216;-74
2022/12/20 03:22:12;;;;;;;1.25;1.15;;;3.70;93.50;;;;;;5062516;28;20224;-74
2022/12/20 03:24:41;;;;;;;1.50;1.40;;;3.70;93.50;;;;;;5043310;28;20726;-74
2022/12/20 03:27:12;;;;;;;1.80;1.20;;;3.70;93.40;;;;;;5054127;28;20216;-74
2022/12/20 03:29:41;;;;;;;1.25;1.15;;;3.70;93.40;;;;;;5042811;28;20722;-74
2022/12/20 03:32:09;;;;;;;1.20;1.10;;;3.70;93.30;;;;;;5040909;28;20220;-74
2022/12/20 03:34:46;;;;;;;1.35;1.17;;;3.70;93.40;;;;;;5061149;28;20405;-74
2022/12/20 03:37:17;;;;;;;1.10;0.90;;;3.70;93.40;;;;;;5063836;28;20235;-74
2022/12/20 03:39:46;;;;;;;1.10;1.00;;;3.70;93.40;;;;;;5043004;28;20220;-74
2022/12/20 03:42:16;;;;;;;1.42;1.20;;;3.70;93.40;;;;;;5044446;28;20212;-73
2022/12/20 03:44:44;;;;;;;1.52;1.20;;;3.80;93.50;;;;;;5046026;28;20196;-75
2022/12/20 03:47:13;;;;;;;2.50;1.20;;;3.80;93.50;;;;;;5039056;28;20566;-73
2022/12/20 03:49:42;;;;;;;1.00;0.90;;;3.80;93.40;;;;;;5042545;28;20626;-73
2022/12/20 03:52:12;;;;;;;1.65;1.30;;;3.80;93.60;;;;;;5045178;28;20635;-74
2022/12/20 03:54:42;;;;;;;1.48;1.08;;;3.80;93.60;;;;;;5035276;28;20507;-74
2022/12/20 03:57:17;;;;;;;1.30;1.13;;;3.80;93.50;;;;;;5038425;28;20631;-73
2022/12/20 03:59:48;;;;;;;1.63;1.27;;;3.80;93.70;;;;;;5057026;28;20221;-74
2022/12/20 04:02:18;;;;;;;1.20;1.10;;;3.80;93.60;;;;;;5037219;28;20220;-74
2022/12/20 04:04:46;;;;;;;1.48;1.00;;;3.80;93.60;;;;;;5028529;28;20674;-74
2022/12/20 04:07:17;;;;;;;1.52;1.23;;;3.80;93.70;;;;;;5066092;28;20216;-75
2022/12/20 04:09:47;;;;;;;0.82;0.80;;;3.80;93.70;;;;;;5028037;28;20220;-74
2022/12/20 04:12:16;;;;;;;1.20;1.10;;;3.90;93.70;;;;;;5061416;28;20223;-74
2022/12/20 04:14:45;;;;;;;1.20;0.90;;;3.90;93.70;;;;;;5041099;28;20223;-73
2022/12/20 04:17:16;;;;;;;1.30;1.20;;;3.90;93.70;;;;;;5061527;28;20227;-74
2022/12/20 04:19:44;;;;;;;1.95;1.50;;;3.90;93.70;;;;;;5044498;28;20225;-74
2022/12/20 04:22:13;;;;;;;1.67;1.23;;;3.90;93.60;;;;;;5033924;28;20237;-76
2022/12/20 04:24:58;;;;;;;1.63;1.48;;;3.90;93.60;;;;;;5017925;28;20204;-73
2022/12/20 04:27:31;;;;;;;1.40;1.30;;;3.90;93.50;;;;;;5040892;28;20667;-73
2022/12/20 04:30:01;;;;;;;1.65;1.10;;;3.90;93.50;;;;;;5044378;28;20233;-75
2022/12/20 04:32:30;;;;;;;3.03;1.85;;;3.90;93.50;;;;;;5043517;28;20212;-74
2022/12/20 04:35:01;;;;;;;1.50;1.02;;;3.90;93.50;;;;;;5037189;28;20571;-76
2022/12/20 04:37:30;;;;;;;2.10;1.30;;;3.90;93.50;;;;;;5036581;28;20225;-74
2022/12/20 04:40:01;;;;;;;1.38;1.27;;;3.90;93.40;;;;;;5031627;28;20653;-74
2022/12/20 04:42:43;;;;;;;1.77;1.33;;;3.90;93.50;;;;;;5040684;28;20218;-75
2022/12/20 04:45:13;;;;;;;1.48;1.15;;;3.90;93.40;;;;;;5043926;28;20189;-73
2022/12/20 04:47:42;;;;;;;1.98;1.20;;;3.90;93.40;;;;;;5019863;28;20228;-74
2022/12/20 04:50:12;;;;;;;1.30;1.08;;;3.90;93.30;;;;;;5044444;28;20610;-74
2022/12/20 04:55:31;;;;;;;1.73;1.20;;;3.90;93.30;;;;;;5045686;28;20196;-73
2022/12/20 04:57:59;;;;;;;2.47;2.28;;;3.90;93.50;;;;;;5010979;28;20226;-73
2022/12/20 05:00:36;;;;;;;0.88;0.80;;;4.00;93.40;;;;;;5002562;28;20561;-74
2022/12/20 05:03:17;;;;;;;1.05;1.00;;;4.00;93.40;;;;;;5009137;28;20194;-73
2022/12/20 05:05:46;;;;;;;1.30;1.20;;;4.00;93.30;;;;;;5015221;28;20208;-73
2022/12/20 05:08:15;;;;;;;1.88;1.35;;;3.90;93.40;;;;;;5017707;28;20217;-73
2022/12/20 05:10:45;;;;;;;1.25;0.98;;;4.00;93.40;;;;;;5032877;28;20614;-73
2022/12/20 05:13:14;;;;;;;2.17;1.88;;;4.00;93.40;;;;;;5018163;28;20213;-77
2022/12/20 05:15:45;;;;;;;1.27;1.10;;;4.00;93.50;;;;;;5035290;28;20200;-73
2022/12/20 05:18:13;;;;;;;2.97;1.60;;;4.00;93.50;;;;;;5031994;28;20312;-73
2022/12/20 05:26:41;;;;;;;1.42;1.20;;;4.00;93.60;;;;;;5036771;28;20225;-74
2022/12/20 05:29:09;;;;;;;1.80;1.02;;;4.00;93.50;;;;;;5039574;28;20693;-73
2022/12/20 05:31:38;;;;;;;1.00;0.90;;;4.00;93.40;;;;;;5026484;28;20637;-74
2022/12/20 05:34:06;;;;;;;1.33;1.05;;;4.00;93.40;;;;;;5038765;28;20217;-76
2022/12/20 05:36:37;;;;;;;1.00;0.90;;;4.00;93.50;;;;;;5027095;28;20194;-74
2022/12/20 05:39:07;;;;;;;1.92;1.30;;;4.00;93.40;;;;;;5017917;28;20264;-74
2022/12/20 05:41:41;;;;;;;1.35;1.02;;;4.00;93.40;;;;;;5010630;28;20315;-74
2022/12/20 05:44:11;;;;;;;1.20;0.85;;;4.00;93.40;;;;;;5011997;28;20189;-74
2022/12/20 05:46:43;;;;;;;1.02;0.93;;;4.10;93.40;;;;;;5011528;28;20197;-74
2022/12/20 05:49:17;;;;;;;2.45;1.13;;;4.00;93.40;;;;;;5016833;28;20232;-76
2022/12/20 05:51:45;;;;;;;1.33;1.20;;;4.10;93.40;;;;;;5024711;28;20417;-73
2022/12/20 05:54:21;;;;;;;0.98;0.90;;;4.10;93.50;;;;;;5000483;28;20214;-74
2022/12/20 05:57:20;;;;;;;1.30;1.20;;;4.10;93.50;;;;;;5031616;28;20219;-74
2022/12/20 05:59:49;;;;;;;2.08;1.30;;;4.10;93.40;;;;;;5064518;28;20235;-75
2022/12/20 06:02:22;;;;;;;1.30;1.20;;;4.10;93.40;;;;;;5057754;28;20548;-74
2022/12/20 06:05:01;;;;;;;2.17;1.25;;;4.10;93.40;;;;;;5040522;28;20582;-74
2022/12/20 06:07:30;;;;;;;1.45;1.10;;;4.10;93.50;;;;;;5050957;28;20228;-74
2022/12/20 06:10:00;;;;;;;1.60;1.23;;;4.10;93.40;;;;;;5046879;28;20196;-75
2022/12/20 06:12:44;;;;;;;1.23;1.10;;;4.10;93.40;;;;;;5046685;28;20367;-73
2022/12/20 06:15:14;;;;;;;1.40;1.00;;;4.10;93.40;;;;;;5048514;28;20197;-74
2022/12/20 06:17:43;;;;;;;1.05;0.90;;;4.10;93.30;;;;;;5036203;28;20224;-74
2022/12/20 06:20:12;;;;;;;1.60;1.30;;;4.10;93.20;;;;;;5047349;28;20200;-75
2022/12/20 06:22:45;;;;;;;1.88;1.00;;;4.10;93.20;;;;;;5046628;28;20224;-74
2022/12/20 06:25:15;;;;;;;1.55;1.10;;;4.10;93.20;;;;;;5039122;28;20671;-74
2022/12/20 06:27:45;;;;;;;0.88;0.88;;;4.20;93.30;;;;;;5048361;28;20230;-73
2022/12/20 06:30:17;;;;;;;2.35;1.33;;;4.10;93.30;;;;;;5053248;28;20189;-73
2022/12/20 06:33:11;;;;;;;1.10;0.95;;;4.20;93.30;;;;;;5051936;28;20223;-74
2022/12/20 06:35:40;;;;;;;1.25;1.15;;;4.20;93.30;;;;;;5058421;28;20208;-72
2022/12/20 06:38:08;;;;;;;1.10;1.00;;;4.20;93.30;;;;;;5043303;28;20577;-74
2022/12/20 06:40:38;;;;;;;1.70;1.60;;;4.20;93.30;;;;;;5037704;28;20213;-73
2022/12/20 06:43:08;;;;;;;1.75;1.35;;;4.20;93.30;;;;;;5064179;28;20388;-73
2022/12/20 06:45:36;;;;;;;1.90;1.13;;;4.20;93.30;;;;;;5047322;28;20204;-74
2022/12/20 06:48:11;;;;;;;1.73;1.27;;;4.20;93.40;;;;;;5055679;28;20222;-74
2022/12/20 06:50:42;;;;;;;1.90;1.30;;;4.20;93.30;;;;;;5036424;28;20202;-74
2022/12/20 06:53:11;;;;;;;1.67;1.58;;;4.20;93.40;;;;;;5047377;28;20201;-75
2022/12/20 06:55:40;;;;;;;1.10;1.00;;;4.20;93.30;;;;;;5046921;28;20201;-73
2022/12/20 06:58:10;;;;;;;2.05;1.23;;;4.20;93.30;;;;;;5040137;28;20218;-74
2022/12/20 07:00:38;;;;;;;1.08;0.90;;;4.20;93.30;;;;;;5043154;28;20201;-73
2022/12/20 07:03:07;;;;;;;1.48;1.20;;;4.20;93.40;;;;;;5058327;28;20291;-73
2022/12/20 07:05:36;;;;;;;2.40;1.02;;;4.20;93.30;;;;;;5064140;28;20202;-75
2022/12/20 07:08:05;;;;;;;1.15;1.05;;;4.20;93.30;;;;;;5034103;28;20255;-75
2022/12/20 07:10:35;;;;;;;1.65;1.10;;;4.20;93.30;;;;;;5043471;28;20204;-73
2022/12/20 07:13:04;;;;;;;1.60;1.50;;;4.20;93.30;;;;;;5042645;28;20660;-73
2022/12/20 07:15:33;;;;;;;1.65;1.00;;;4.30;93.30;;;;;;5045873;28;20192;-75
2022/12/20 07:18:02;;;;;;;1.20;1.10;;;4.30;93.40;;;;;;5045157;28;20221;-73
2022/12/20 07:20:31;;;;;;;1.13;1.02;;;4.30;93.50;;;;;;5039183;28;20207;-75
2022/12/20 07:23:00;;;;;;;1.55;1.25;;;4.30;93.40;;;;;;5059228;28;20710;-74
2022/12/20 07:25:28;;;;;;;1.40;1.30;;;4.30;93.30;;;;;;5020236;28;20200;-75
2022/12/20 07:27:58;;;;;;;1.30;1.20;;;4.30;93.40;;;;;;5042629;28;20224;-73
2022/12/20 07:30:27;;;;;;;1.48;1.20;;;4.30;93.40;;;;;;5044049;28;20195;-74
2022/12/20 07:32:57;;;;;;;3.40;1.42;;;4.30;93.30;;;;;;5037123;28;20224;-69
2022/12/20 07:35:26;;;;;;;1.40;0.90;;;4.30;93.30;;;;;;5030020;28;20712;-69
2022/12/20 07:37:54;;;;;;;1.38;1.10;;;4.30;93.40;;;;;;5018718;28;20234;-70
2022/12/20 07:40:23;;;;;;;1.55;1.30;;;4.30;93.40;;;;;;5047041;28;20287;-70
2022/12/20 07:42:51;;;;;;;1.17;1.08;;;4.30;93.40;;;;;;5045908;28;20213;-71
2022/12/20 07:45:20;;;;;;;1.20;1.10;;;4.30;93.40;;;;;;5030331;28;20554;-69
2022/12/20 07:47:48;;;;;;;1.10;0.95;;;4.30;93.30;;;;;;5028119;28;21018;-70
2022/12/20 07:50:19;;;;;;;0.73;0.70;;;4.30;93.40;;;;;;5028812;28;20199;-70
2022/12/20 07:52:49;;;;;;;2.08;1.30;;;4.30;93.40;;;;;;5028836;28;20224;-71
2022/12/20 07:55:18;;;;;;;1.85;1.33;;;4.30;93.40;;;;;;5028719;28;20215;-70
2022/12/20 07:57:51;;;;;;;1.52;1.35;;;4.40;93.40;;;;;;5013456;28;20220;-70
2022/12/20 08:00:20;;;;;;;1.33;1.23;;;4.40;93.40;;;;;;5038061;28;20193;-71
2022/12/20 08:02:53;;;;;;;2.22;1.55;;;4.40;93.50;;;;;;5018625;28;20224;-69
2022/12/20 08:05:25;;;;;;;1.85;1.38;;;4.40;93.50;;;;;;5020389;28;20197;-70
2022/12/20 08:07:54;;;;;;;1.10;1.00;;;4.40;93.40;;;;;;5021644;28;20221;-70
2022/12/20 08:10:28;;;;;;;2.67;1.13;;;4.40;93.30;;;;;;5009775;28;20228;-70
2022/12/20 08:12:57;;;;;;;1.55;1.17;;;4.40;93.40;;;;;;5019025;28;20252;-69
2022/12/20 08:15:26;;;;;;;1.25;0.95;;;4.40;93.30;;;;;;5047909;28;20672;-69
2022/12/20 08:17:55;;;;;;;1.20;1.10;;;4.40;93.30;;;;;;5025195;28;20274;-70
2022/12/20 08:20:24;;;;;;;2.08;1.15;;;4.40;93.30;;;;;;5029485;28;20200;-69
2022/12/20 08:22:53;;;;;;;1.33;1.00;;;4.40;93.40;;;;;;5036472;28;20300;-68
2022/12/20 08:25:21;;;;;;;1.23;0.90;;;4.40;93.40;;;;;;5044195;28;20200;-70
2022/12/20 08:27:51;;;;;;;1.67;1.10;;;4.40;93.30;;;;;;5044711;28;20243;-68
2022/12/20 08:30:21;;;;;;;1.45;1.35;;;4.40;93.20;;;;;;5054152;28;20219;-73
2022/12/20 08:32:49;;;;;;;1.20;0.90;;;4.40;93.20;;;;;;5044801;28;20246;-75
2022/12/20 08:35:18;;;;;;;1.17;1.08;;;4.40;93.10;;;;;;5058803;28;20577;-73
2022/12/20 08:37:48;;;;;;;2.00;0.95;;;4.40;93.10;;;;;;5034148;28;20334;-73
2022/12/20 08:40:17;;;;;;;0.80;0.80;;;4.40;93.00;;;;;;5037767;28;20235;-74
2022/12/20 08:42:46;;;;;;;1.30;1.20;;;4.40;93.00;;;;;;5050513;28;20711;-73
2022/12/20 08:45:14;;;;;;;1.70;1.30;;;4.40;93.00;;;;;;5044990;28;20235;-74
2022/12/20 08:47:43;;;;;;;1.15;1.05;;;4.50;93.10;;;;;;5029642;28;20738;-74
2022/12/20 08:50:12;;;;;;;1.10;1.00;;;4.50;93.00;;;;;;5059897;28;20204;-73
2022/12/20 08:52:40;;;;;;;1.40;1.00;;;4.50;93.10;;;;;;5043290;28;20246;-73
2022/12/20 08:55:10;;;;;;;1.50;1.08;;;4.50;93.10;;;;;;5042073;28;20212;-74
2022/12/20 08:57:40;;;;;;;1.48;1.38;;;4.50;93.10;;;;;;5043499;28;20247;-73
2022/12/20 09:00:10;;;;;;;1.35;1.10;;;4.50;93.10;;;;;;5062194;28;20217;-73
2022/12/20 09:02:40;;;;;;;1.35;0.98;;;4.50;93.30;;;;;;5040086;28;20628;-75
2022/12/20 09:05:09;;;;;;;1.90;1.37;;;4.50;93.20;;;;;;5036983;28;20442;-75
2022/12/20 09:07:38;;;;;;;1.42;1.20;;;4.60;95.10;;;;;;5055966;28;20474;-73
2022/12/20 09:10:08;;;;;;;3.28;1.00;;;4.60;94.80;;;;;;5042754;28;20220;-74
2022/12/20 09:12:38;;;;;;;2.28;1.30;;;4.60;94.20;;;;;;5057487;28;20307;-73
2022/12/20 09:15:08;;;;;;;1.58;1.30;;;4.60;93.90;;;;;;5034352;28;20620;-75
2022/12/20 09:17:36;;;;;;;1.15;1.05;;;4.60;93.70;;;;;;5071037;28;20235;-76
2022/12/20 09:20:06;;;;;;;1.10;1.00;;;4.60;93.60;;;;;;5050365;28;20636;-75
2022/12/20 09:22:35;;;;;;;2.50;1.15;;;4.60;93.70;;;;;;5057298;28;20215;-73
2022/12/20 09:25:03;;;;;;;2.90;1.58;;;4.60;93.70;;;;;;5047052;28;20200;-75
2022/12/20 09:27:32;;;;;;;2.10;1.23;;;4.60;93.70;;;;;;5042245;28;20266;-75
2022/12/20 09:30:01;;;;;;;1.85;1.70;;;4.60;95.80;;;;;;5051986;28;20220;-74
2022/12/20 09:32:30;;;;;;;2.83;1.63;;;4.90;99.90;;;;;;5046359;28;20222;-74
2022/12/20 09:34:58;;;;;;;9.27;2.10;;;5.20;99.90;;;;;;5057976;28;20744;-73
2022/12/20 09:37:30;;;;;;;2.83;1.98;;;5.40;99.90;;;;;;5030228;28;20217;-76
2022/12/20 09:39:58;;;;;;;1.85;1.45;;;5.60;99.90;;;;;;5052599;28;20253;-76
2022/12/20 09:42:28;;;;;;;4.80;1.50;;;5.50;99.90;;;;;;5045727;28;20618;-74
2022/12/20 09:45:05;;;;;;;3.47;1.52;;;5.50;99.90;;;;;;5037370;28;20301;-74
2022/12/20 09:47:36;;;;;;;1.40;1.30;;;5.40;99.90;;;;;;5037972;28;20235;-74
2022/12/20 09:50:06;;;;;;;2.13;1.65;;;5.30;99.90;;;;;;5041373;28;20225;-75
2022/12/20 09:52:58;;;;;;;2.80;1.80;;;5.20;99.90;;;;;;5066926;28;20216;-73
2022/12/20 09:55:35;;;;;;;3.40;1.35;;;5.20;99.90;;;;;;5038530;28;20213;-74
2022/12/20 09:58:31;;;;;;;1.85;1.35;;;5.10;99.90;;;;;;5059480;28;20259;-74
2022/12/20 10:01:16;;;;;;;1.80;1.10;;;5.10;99.90;;;;;;5055509;28;20562;-74
2022/12/20 10:03:52;;;;;;;4.50;2.22;;;5.10;99.90;;;;;;5054880;28;20201;-75
2022/12/20 10:06:30;;;;;;;2.03;1.67;;;5.00;99.90;;;;;;5034769;28;20232;-74
2022/12/20 10:09:00;;;;;;;1.60;1.35;;;5.00;99.90;;;;;;5040359;28;20212;-74
2022/12/20 10:11:49;;;;;;;4.63;1.50;;;5.00;99.90;;;;;;5046925;28;20246;-74
2022/12/20 10:14:54;;;;;;;1.65;1.40;;;5.00;99.90;;;;;;5048950;28;20197;-74
2022/12/20 10:17:37;;;;;;;1.45;1.35;;;5.00;99.90;;;;;;4999742;28;20216;-74
2022/12/20 10:20:19;;;;;;;3.25;1.40;;;5.00;99.90;;;;;;5034099;28;20812;-74
2022/12/20 10:22:54;;;;;;;2.88;1.15;;;5.10;99.90;;;;;;5045086;28;20216;-72
2022/12/20 10:25:29;;;;;;;3.10;1.65;;;5.10;99.90;;;;;;5046431;28;20201;-74
2022/12/20 10:28:00;;;;;;;1.35;1.20;;;5.00;99.90;;;;;;5019294;28;20232;-74
2022/12/20 10:30:33;;;;;;;1.20;1.10;;;5.10;99.90;;;;;;5010341;28;20197;-73
2022/12/20 10:33:04;;;;;;;2.33;1.30;;;5.00;99.90;;;;;;5008758;28;20217;-73
2022/12/20 10:35:39;;;;;;;2.90;1.60;;;5.00;99.90;;;;;;5013623;28;20209;-73
2022/12/20 10:38:11;;;;;;;1.75;1.25;;;5.00;99.90;;;;;;5038323;28;20724;-75
2022/12/20 10:40:41;;;;;;;2.13;1.35;;;5.00;99.90;;;;;;5042704;28;20212;-73
2022/12/20 10:43:43;;;;;;;3.85;1.33;;;5.10;99.90;;;;;;5036610;28;20188;-73
2022/12/20 10:46:15;;;;;;;2.72;1.42;;;5.10;99.90;;;;;;5047924;28;20195;-73
2022/12/20 10:48:46;;;;;;;1.20;1.10;;;5.10;99.90;;;;;;5036162;28;20279;-74
2022/12/20 10:51:17;;;;;;;1.80;1.55;;;5.10;99.90;;;;;;5051483;28;20654;-74
2022/12/20 10:53:56;;;;;;;2.22;1.75;;;5.10;99.90;;;;;;5061018;28;20311;-74
2022/12/20 10:56:27;;;;;;;2.53;1.40;;;5.10;99.90;;;;;;5045874;28;20209;-72
2022/12/20 10:58:58;;;;;;;2.00;1.75;;;5.00;99.90;;;;;;5049597;28;20213;-73
2022/12/20 11:01:30;;;;;;;1.55;1.25;;;5.10;99.90;;;;;;5048361;28;20295;-75
2022/12/20 11:04:03;;;;;;;1.95;1.38;;;5.00;99.90;;;;;;5053880;28;20228;-75
2022/12/20 11:06:43;;;;;;;3.67;1.50;;;5.00;99.90;;;;;;5034858;28;20572;-73
2022/12/20 11:09:25;;;;;;;2.65;1.10;;;5.10;99.90;;;;;;5039558;28;20225;-72
2022/12/20 11:12:03;;;;;;;5.82;2.53;;;5.00;99.90;;;;;;5044599;28;20208;-73
2022/12/20 11:14:34;;;;;;;1.38;1.25;;;5.00;99.90;;;;;;5028501;28;20240;-73
2022/12/20 11:17:23;;;;;;;2.50;1.40;;;5.00;99.90;;;;;;5047874;28;20310;-73
2022/12/20 11:20:07;;;;;;;1.83;1.27;;;5.00;99.90;;;;;;5039706;28;20291;-73
2022/12/20 11:22:48;;;;;;;3.20;1.38;;;5.00;99.90;;;;;;5051738;28;20243;-73
2022/12/20 11:25:38;;;;;;;2.33;1.17;;;5.00;99.90;;;;;;5039905;28;20223;-73
2022/12/20 11:28:35;;;;;;;1.58;1.15;;;5.00;99.90;;;;;;5034590;28;20232;-73
2022/12/20 11:31:12;;;;;;;3.78;1.70;;;5.00;99.90;;;;;;5031845;28;20201;-73
2022/12/20 11:33:55;;;;;;;1.48;1.30;;;5.00;99.90;;;;;;5060489;28;20196;-74
2022/12/20 11:36:35;;;;;;;1.30;1.10;;;5.10;99.90;;;;;;5045148;28;20619;-73
2022/12/20 11:39:13;;;;;;;1.48;1.35;;;5.10;99.90;;;;;;5043544;28;20703;-74
2022/12/20 11:41:50;;;;;;;2.38;1.00;;;5.00;99.90;;;;;;5050640;28;20273;-73
2022/12/20 11:44:27;;;;;;;2.85;1.13;;;5.00;99.90;;;;;;5046668;28;20196;-74
2022/12/20 11:47:08;;;;;;;1.40;0.98;;;5.10;99.90;;;;;;5044611;28;20212;-74
2022/12/20 11:49:53;;;;;;;1.17;1.08;;;5.10;99.90;;;;;;5035052;28;20696;-73
2022/12/20 11:52:33;;;;;;;1.95;1.63;;;5.10;99.90;;;;;;5044706;28;20248;-73
2022/12/20 11:55:14;;;;;;;1.27;1.08;;;5.10;99.90;;;;;;5040946;28;20239;-73
2022/12/20 11:57:48;;;;;;;1.63;1.20;;;5.10;99.80;;;;;;5034978;28;20617;-72
2022/12/20 12:00:38;;;;;;;1.45;1.35;;;5.10;99.80;;;;;;5061350;28;20554;-73
2022/12/20 12:03:14;;;;;;;1.48;1.38;;;5.10;99.70;;;;;;5047425;28;20266;-73
2022/12/20 12:05:45;;;;;;;1.65;1.05;;;5.10;99.80;;;;;;5061515;28;20255;-73
2022/12/20 12:08:22;;;;;;;2.33;1.50;;;5.10;99.90;;;;;;5044600;28;20307;-72
2022/12/20 12:10:57;;;;;;;1.20;1.10;;;5.10;99.80;;;;;;5037847;28;20188;-73
2022/12/20 12:13:27;;;;;;;1.25;1.08;;;5.10;99.90;;;;;;5046920;28;20276;-73
2022/12/20 12:16:06;;;;;;;1.25;1.15;;;5.10;99.80;;;;;;5052858;28;20255;-73
2022/12/20 12:18:36;;;;;;;2.08;1.30;;;5.10;99.70;;;;;;5037138;28;20291;-74
2022/12/20 12:21:11;;;;;;;1.40;1.10;;;5.10;99.70;;;;;;5043472;28;20194;-74
2022/12/20 12:23:51;;;;;;;1.00;0.77;;;5.10;99.70;;;;;;5028957;28;20197;-71
2022/12/20 12:26:22;;;;;;;2.22;1.05;;;5.10;99.80;;;;;;5040004;28;20220;-74
2022/12/20 12:28:55;;;;;;;1.30;1.13;;;5.10;99.70;;;;;;5019835;28;20605;-75
2022/12/20 12:31:28;;;;;;;1.83;1.20;;;5.10;99.60;;;;;;5028065;28;20672;-72
2022/12/20 12:34:11;;;;;;;1.70;0.95;;;5.10;99.90;;;;;;5033570;28;20198;-72
2022/12/20 12:36:59;;;;;;;1.83;1.25;;;5.10;99.50;;;;;;5044725;28;21083;-73
2022/12/20 12:39:57;;;;;;;1.70;1.45;;;5.10;99.60;;;;;;5036072;28;20244;-73
2022/12/20 12:42:54;;;;;;;2.15;1.10;;;5.10;99.40;;;;;;5034616;28;20278;-73
2022/12/20 12:45:26;;;;;;;1.23;1.13;;;5.10;99.40;;;;;;5056717;28;20205;-70
2022/12/20 12:47:58;;;;;;;3.17;1.20;;;5.10;99.30;;;;;;5042086;28;20274;-68
2022/12/20 12:50:29;;;;;;;1.85;1.20;;;5.20;99.40;;;;;;5048885;28;20192;-70
2022/12/20 12:53:05;;;;;;;1.15;0.93;;;5.20;99.30;;;;;;5040934;28;20220;-68
2022/12/20 12:55:44;;;;;;;1.58;1.40;;;5.20;99.20;;;;;;5056825;28;20291;-69
2022/12/20 12:58:34;;;;;;;1.48;1.20;;;5.20;99.30;;;;;;5039446;28;20220;-69
2022/12/20 13:01:06;;;;;;;1.50;1.20;;;5.20;99.30;;;;;;5032262;28;20719;-69
2022/12/20 13:04:06;;;;;;;1.95;1.50;;;5.20;99.30;;;;;;5040889;28;20195;-70
2022/12/20 13:06:56;;;;;;;1.23;1.10;;;5.20;99.20;;;;;;5051441;28;20262;-69
2022/12/20 13:09:38;;;;;;;3.33;1.30;;;5.20;99.20;;;;;;5037003;28;20731;-69
2022/12/20 13:12:49;;;;;;;2.08;1.20;;;5.20;99.10;;;;;;5049323;28;20730;-73
2022/12/20 13:15:51;;;;;;;2.38;1.10;;;5.20;99.10;;;;;;5045694;28;20194;-73
2022/12/20 13:18:28;;;;;;;1.67;1.25;;;5.20;99.00;;;;;;5035947;28;20231;-73
2022/12/20 13:21:30;;;;;;;1.50;1.20;;;5.20;99.10;;;;;;5038113;28;20188;-70
2022/12/20 13:24:39;;;;;;;1.45;1.05;;;5.20;99.00;;;;;;5038566;28;20204;-69
2022/12/20 13:27:37;;;;;;;1.27;1.17;;;5.20;99.00;;;;;;5035393;28;20216;-69
2022/12/20 13:30:25;;;;;;;2.15;2.05;;;5.20;99.00;;;;;;5041646;28;20197;-68
2022/12/20 13:33:22;;;;;;;2.00;1.30;;;5.20;98.90;;;;;;5042473;28;20236;-68
2022/12/20 13:36:01;;;;;;;1.30;1.10;;;5.20;99.00;;;;;;5050212;28;20188;-70
2022/12/20 13:38:52;;;;;;;1.58;1.25;;;5.20;98.90;;;;;;5043024;28;20259;-74
2022/12/20 13:41:33;;;;;;;2.42;1.02;;;5.20;98.80;;;;;;5031532;28;20243;-75
2022/12/20 13:44:33;;;;;;;1.67;1.30;;;5.20;98.80;;;;;;5042423;28;20480;-74